createdAt,value
2018-04-15T00:01:58.189Z,14.83
2018-04-15T00:04:25.811Z,14.20
2018-04-15T00:06:53.427Z,14.13
2018-04-15T00:09:21.033Z,15.30
2018-04-15T00:11:48.674Z,15.23
2018-04-15T00:14:16.301Z,16.60
2018-04-15T00:16:43.891Z,14.20
2018-04-15T00:19:12.249Z,16.17
2018-04-15T00:21:39.972Z,14.97
2018-04-15T00:24:07.577Z,15.93
2018-04-15T00:26:35.324Z,14.70
2018-04-15T00:29:02.931Z,14.17
2018-04-15T00:31:30.508Z,15.70
2018-04-15T00:33:58.140Z,13.93
2018-04-15T00:36:25.742Z,14.50
2018-04-15T00:38:53.314Z,15.80
2018-04-15T00:41:20.950Z,14.93
2018-04-15T00:43:48.532Z,16.03
2018-04-15T00:46:16.114Z,15.33
2018-04-15T00:48:43.713Z,16.57
2018-04-15T00:51:11.295Z,16.40
2018-04-15T00:53:50.630Z,15.37
2018-04-15T00:56:18.242Z,14.93
2018-04-15T00:58:45.817Z,15.20
2018-04-15T01:01:13.442Z,17.50
2018-04-15T01:03:41.031Z,14.80
2018-04-15T01:06:08.610Z,16.77
2018-04-15T01:08:36.218Z,13.07
2018-04-15T01:11:03.792Z,15.33
2018-04-15T01:13:31.380Z,14.93
2018-04-15T01:15:59.005Z,17.50
2018-04-15T01:18:26.589Z,14.50
2018-04-15T01:20:54.181Z,15.73
2018-04-15T01:23:21.812Z,15.60
2018-04-15T01:25:49.397Z,16.40
2018-04-15T01:28:17.013Z,17.77
2018-04-15T01:30:44.673Z,17.80
2018-04-15T01:33:12.270Z,18.43
2018-04-15T01:35:39.864Z,18.37
2018-04-15T01:38:07.496Z,19.37
2018-04-15T01:40:35.093Z,15.50
2018-04-15T01:43:02.690Z,16.47
2018-04-15T01:45:30.323Z,17.30
2018-04-15T01:47:57.949Z,22.33
2018-04-15T01:50:25.549Z,19.93
2018-04-15T01:52:53.184Z,18.23
2018-04-15T01:55:20.783Z,18.27
2018-04-15T01:57:48.380Z,18.40
2018-04-15T02:00:16.024Z,18.43
2018-04-15T02:02:43.614Z,16.17
2018-04-15T02:05:11.204Z,17.13
2018-04-15T02:07:38.828Z,16.27
2018-04-15T02:10:06.423Z,15.10
2018-04-15T02:12:34.058Z,16.87
2018-04-15T02:15:01.697Z,16.77
2018-04-15T02:17:29.308Z,16.27
2018-04-15T02:19:56.916Z,15.50
2018-04-15T02:22:24.563Z,15.80
2018-04-15T02:24:52.167Z,15.90
2018-04-15T02:27:19.767Z,15.77
2018-04-15T02:29:47.414Z,18.53
2018-04-15T02:32:15.037Z,20.03
2018-04-15T02:34:42.619Z,20.43
2018-04-15T02:37:10.249Z,20.77
2018-04-15T02:39:37.895Z,20.37
2018-04-15T02:42:05.544Z,18.40
2018-04-15T02:44:33.194Z,20.40
2018-04-15T02:47:00.792Z,18.87
2018-04-15T02:49:28.384Z,15.10
2018-04-15T02:51:56.036Z,15.30
2018-04-15T02:54:23.626Z,16.63
2018-04-15T02:56:51.217Z,17.23
2018-04-15T02:59:18.847Z,17.77
2018-04-15T03:01:46.453Z,17.13
2018-04-15T03:04:14.089Z,16.90
2018-04-15T03:06:41.738Z,15.93
2018-04-15T03:09:09.332Z,14.30
2018-04-15T03:11:36.934Z,17.10
2018-04-15T03:14:04.563Z,18.17
2018-04-15T03:16:32.153Z,17.40
2018-04-15T03:18:59.753Z,17.33
2018-04-15T03:21:27.384Z,21.60
2018-04-15T03:23:54.973Z,19.43
2018-04-15T03:26:22.565Z,19.20
2018-04-15T03:28:50.196Z,18.10
2018-04-15T03:31:17.789Z,17.83
2018-04-15T03:33:45.388Z,16.20
2018-04-15T03:36:13.051Z,17.20
2018-04-15T03:38:40.637Z,17.20
2018-04-15T03:41:08.249Z,21.17
2018-04-15T03:43:35.901Z,17.77
2018-04-15T03:46:03.509Z,18.40
2018-04-15T03:48:31.109Z,17.47
2018-04-15T03:50:58.741Z,18.10
2018-04-15T03:53:26.400Z,18.10
2018-04-15T03:55:54.005Z,17.00
2018-04-15T03:58:21.642Z,15.30
2018-04-15T04:00:49.308Z,13.50
2018-04-15T04:03:16.905Z,14.50
2018-04-15T04:05:44.552Z,12.80
2018-04-15T04:08:12.153Z,12.33
2018-04-15T04:10:39.750Z,12.90
2018-04-15T04:13:07.434Z,13.27
2018-04-15T04:15:35.091Z,12.77
2018-04-15T04:18:14.323Z,11.20
2018-04-15T04:20:53.695Z,12.00
2018-04-15T04:23:33.049Z,13.07
2018-04-15T04:26:05.293Z,12.93
2018-04-15T04:28:32.909Z,12.67
2018-04-15T04:31:00.509Z,11.73
2018-04-15T04:33:28.109Z,10.33
2018-04-15T04:35:55.745Z,12.53
2018-04-15T04:38:23.345Z,10.77
2018-04-15T04:40:50.937Z,11.57
2018-04-15T04:43:18.574Z,11.20
2018-04-15T04:45:46.173Z,11.37
2018-04-15T04:48:13.768Z,11.30
2018-04-15T04:50:41.397Z,9.50
2018-04-15T04:53:08.986Z,9.10
2018-04-15T04:55:36.581Z,8.47
2018-04-15T04:58:04.217Z,8.90
2018-04-15T05:00:31.814Z,8.03
2018-04-15T05:02:59.409Z,9.97
2018-04-15T05:05:27.048Z,9.00
2018-04-15T05:07:54.657Z,9.13
2018-04-15T05:10:22.244Z,9.80
2018-04-15T05:12:49.881Z,9.43
2018-04-15T05:15:17.486Z,11.87
2018-04-15T05:17:45.076Z,12.53
2018-04-15T05:20:12.712Z,12.00
2018-04-15T05:22:40.317Z,14.17
2018-04-15T05:25:07.913Z,9.47
2018-04-15T05:27:35.535Z,11.33
2018-04-15T05:30:03.139Z,11.70
2018-04-15T05:32:30.749Z,10.20
2018-04-15T05:34:58.391Z,12.20
2018-04-15T05:37:25.985Z,9.67
2018-04-15T05:39:53.590Z,10.77
2018-04-15T05:42:21.221Z,13.40
2018-04-15T05:44:48.835Z,11.87
2018-04-15T05:47:16.438Z,8.80
2018-04-15T05:49:44.054Z,8.43
2018-04-15T05:52:11.648Z,7.33
2018-04-15T05:54:39.264Z,10.43
2018-04-15T05:57:06.901Z,7.00
2018-04-15T05:59:34.623Z,7.30
2018-04-15T06:02:02.227Z,6.80
2018-04-15T06:04:30.001Z,7.07
2018-04-15T06:06:57.600Z,7.57
2018-04-15T06:09:25.193Z,7.30
2018-04-15T06:11:52.812Z,7.03
2018-04-15T06:14:20.436Z,7.80
2018-04-15T06:16:48.043Z,8.70
2018-04-15T06:19:15.670Z,9.83
2018-04-15T06:21:43.313Z,6.40
2018-04-15T06:24:10.917Z,7.53
2018-04-15T06:26:38.545Z,8.73
2018-04-15T06:29:06.140Z,10.37
2018-04-15T06:31:33.734Z,10.00
2018-04-15T06:34:01.369Z,8.53
2018-04-15T06:36:28.987Z,9.40
2018-04-15T06:38:56.577Z,9.90
2018-04-15T06:41:24.208Z,12.40
2018-04-15T06:43:51.813Z,10.83
2018-04-15T06:46:19.415Z,11.47
2018-04-15T06:48:47.042Z,9.43
2018-04-15T06:51:14.673Z,9.70
2018-04-15T06:53:42.260Z,7.43
2018-04-15T06:56:09.896Z,6.40
2018-04-15T06:58:37.482Z,6.10
2018-04-15T07:01:05.063Z,7.27
2018-04-15T07:03:32.705Z,5.80
2018-04-15T07:06:00.285Z,5.27
2018-04-15T07:08:27.881Z,6.00
2018-04-15T07:10:55.517Z,5.93
2018-04-15T07:13:23.100Z,6.27
2018-04-15T07:15:50.720Z,6.23
2018-04-15T07:18:18.434Z,5.90
2018-04-15T07:20:46.011Z,5.27
2018-04-15T07:23:13.605Z,5.90
2018-04-15T07:25:41.240Z,5.10
2018-04-15T07:28:08.846Z,6.20
2018-04-15T07:30:36.441Z,4.70
2018-04-15T07:33:04.058Z,5.23
2018-04-15T07:35:31.702Z,5.90
2018-04-15T07:37:59.340Z,5.93
2018-04-15T07:40:26.988Z,8.77
2018-04-15T07:42:54.588Z,5.53
2018-04-15T07:45:22.199Z,6.07
2018-04-15T07:47:49.828Z,5.17
2018-04-15T07:50:17.420Z,6.00
2018-04-15T07:52:45.018Z,5.70
2018-04-15T07:55:12.659Z,7.27
2018-04-15T07:57:40.248Z,5.57
2018-04-15T08:00:07.845Z,5.83
2018-04-15T08:02:35.477Z,5.90
2018-04-15T08:05:03.062Z,4.70
2018-04-15T08:07:30.651Z,5.77
2018-04-15T08:09:58.275Z,5.13
2018-04-15T08:12:25.886Z,5.07
2018-04-15T08:14:53.472Z,6.00
2018-04-15T08:17:21.123Z,4.50
2018-04-15T08:19:48.716Z,4.90
2018-04-15T08:22:16.316Z,4.77
2018-04-15T08:24:43.939Z,5.80
2018-04-15T08:27:11.539Z,5.30
2018-04-15T08:29:39.129Z,4.80
2018-04-15T08:32:06.769Z,5.00
2018-04-15T08:34:34.362Z,4.83
2018-04-15T08:37:01.954Z,4.27
2018-04-15T08:39:29.568Z,5.00
2018-04-15T08:41:57.188Z,4.40
2018-04-15T08:44:24.773Z,6.37
2018-04-15T08:46:52.407Z,4.57
2018-04-15T08:49:19.981Z,6.17
2018-04-15T08:51:47.571Z,4.80
2018-04-15T08:54:15.176Z,4.13
2018-04-15T08:56:42.740Z,4.63
2018-04-15T08:59:10.317Z,5.90
2018-04-15T09:01:37.949Z,4.90
2018-04-15T09:04:05.536Z,4.40
2018-04-15T09:06:33.135Z,4.20
2018-04-15T09:09:00.827Z,4.80
2018-04-15T09:11:28.408Z,4.83
2018-04-15T09:13:56.003Z,4.73
2018-04-15T09:16:23.644Z,4.77
2018-04-15T09:18:51.219Z,4.77
2018-04-15T09:21:18.818Z,4.40
2018-04-15T09:23:46.445Z,5.10
2018-04-15T09:26:14.026Z,4.30
2018-04-15T09:28:41.605Z,4.93
2018-04-15T09:31:11.704Z,5.43
2018-04-15T09:33:39.293Z,4.10
2018-04-15T09:36:06.873Z,4.77
2018-04-15T09:38:34.483Z,3.17
2018-04-15T09:41:02.109Z,4.20
2018-04-15T09:43:29.705Z,4.57
2018-04-15T09:45:57.325Z,3.70
2018-04-15T09:48:24.916Z,4.83
2018-04-15T09:50:52.506Z,4.70
2018-04-15T09:53:20.125Z,4.53
2018-04-15T09:55:47.702Z,5.30
2018-04-15T09:58:15.291Z,4.13
2018-04-15T10:00:42.948Z,4.50
2018-04-15T10:03:10.520Z,4.80
2018-04-15T10:05:38.110Z,5.40
2018-04-15T10:08:05.768Z,3.70
2018-04-15T10:10:33.356Z,4.93
2018-04-15T10:13:01.174Z,4.00
2018-04-15T10:15:28.837Z,3.93
2018-04-15T10:17:56.481Z,5.53
2018-04-15T10:20:24.074Z,4.60
2018-04-15T10:22:51.695Z,4.63
2018-04-15T10:25:19.260Z,5.00
2018-04-15T10:27:46.837Z,4.80
2018-04-15T10:30:14.494Z,4.03
2018-04-15T10:32:42.093Z,4.60
2018-04-15T10:35:09.666Z,5.27
2018-04-15T10:37:37.285Z,6.10
2018-04-15T10:40:04.881Z,4.63
2018-04-15T10:42:32.473Z,4.93
2018-04-15T10:45:00.107Z,3.70
2018-04-15T10:47:27.710Z,5.90
2018-04-15T10:49:55.302Z,5.43
2018-04-15T10:52:22.933Z,5.60
2018-04-15T10:54:50.538Z,4.30
2018-04-15T10:57:18.117Z,5.83
2018-04-15T10:59:45.741Z,5.43
2018-04-15T11:02:13.375Z,4.30
2018-04-15T11:04:40.961Z,4.03
2018-04-15T11:07:08.607Z,4.97
2018-04-15T11:09:36.210Z,5.80
2018-04-15T11:12:03.803Z,6.07
2018-04-15T11:14:31.418Z,5.23
2018-04-15T11:16:59.037Z,6.73
2018-04-15T11:19:26.675Z,5.27
2018-04-15T11:21:54.346Z,4.80
2018-04-15T11:24:21.965Z,4.93
2018-04-15T11:26:49.549Z,4.30
2018-04-15T11:29:17.171Z,5.57
2018-04-15T11:31:44.760Z,4.57
2018-04-15T11:34:12.918Z,5.03
2018-04-15T11:36:40.561Z,4.03
2018-04-15T11:39:08.168Z,5.07
2018-04-15T11:41:35.810Z,5.07
2018-04-15T11:44:03.494Z,5.80
2018-04-15T11:46:31.145Z,5.20
2018-04-15T11:48:58.738Z,5.20
2018-04-15T11:51:26.385Z,5.47
2018-04-15T11:53:54.003Z,6.67
2018-04-15T11:56:21.593Z,6.60
2018-04-15T11:58:49.212Z,5.40
2018-04-15T12:01:16.811Z,5.43
2018-04-15T12:03:44.401Z,5.73
2018-04-15T12:06:12.055Z,5.40
2018-04-15T12:08:39.697Z,6.93
2018-04-15T12:11:07.311Z,6.90
2018-04-15T12:13:34.955Z,6.67
2018-04-15T12:16:02.540Z,6.10
2018-04-15T12:18:30.137Z,7.53
2018-04-15T12:20:57.762Z,8.30
2018-04-15T12:23:25.336Z,7.90
2018-04-15T12:25:53.762Z,7.73
2018-04-15T12:28:21.412Z,9.03
2018-04-15T12:30:49.001Z,7.57
2018-04-15T12:33:16.705Z,6.97
2018-04-15T12:35:44.426Z,7.93
2018-04-15T12:38:12.957Z,7.13
2018-04-15T12:40:40.590Z,7.87
2018-04-15T12:43:09.186Z,9.90
2018-04-15T12:45:36.843Z,9.33
2018-04-15T12:48:04.876Z,6.80
2018-04-15T12:50:32.509Z,7.40
2018-04-15T12:53:03.232Z,8.37
2018-04-15T12:55:30.837Z,9.93
2018-04-15T12:57:58.470Z,8.70
2018-04-15T13:00:26.065Z,9.20
2018-04-15T13:02:53.665Z,8.50
2018-04-15T13:05:21.281Z,9.20
2018-04-15T13:07:49.076Z,8.40
2018-04-15T13:10:16.711Z,7.67
2018-04-15T13:12:44.338Z,7.70
2018-04-15T13:15:11.943Z,8.57
2018-04-15T13:17:39.525Z,9.73
2018-04-15T13:20:07.148Z,9.10
2018-04-15T13:22:34.740Z,9.20
2018-04-15T13:25:02.315Z,9.30
2018-04-15T13:27:30.686Z,7.20
2018-04-15T13:29:58.355Z,8.90
2018-04-15T13:32:25.976Z,7.73
2018-04-15T13:34:53.602Z,9.03
2018-04-15T13:37:21.210Z,7.07
2018-04-15T13:39:48.812Z,8.07
2018-04-15T13:42:16.472Z,8.80
2018-04-15T13:44:44.069Z,8.40
2018-04-15T13:47:11.674Z,6.90
2018-04-15T13:49:39.317Z,8.20
2018-04-15T13:52:06.909Z,7.13
2018-04-15T13:54:34.514Z,7.87
2018-04-15T13:57:02.180Z,7.70
2018-04-15T13:59:29.781Z,7.70
2018-04-15T14:01:57.378Z,8.10
2018-04-15T14:04:25.083Z,8.47
2018-04-15T14:06:52.687Z,7.93
2018-04-15T14:09:20.286Z,7.63
2018-04-15T14:11:47.983Z,8.33
2018-04-15T14:14:15.647Z,7.90
2018-04-15T14:16:43.268Z,8.40
2018-04-15T14:19:10.893Z,8.10
2018-04-15T14:21:38.577Z,6.90
2018-04-15T14:24:06.206Z,8.87
2018-04-15T14:26:33.832Z,8.10
2018-04-15T14:29:01.427Z,9.73
2018-04-15T14:31:29.108Z,7.47
2018-04-15T14:33:58.627Z,5.90
2018-04-15T14:36:26.213Z,6.80
2018-04-15T14:38:53.828Z,6.93
2018-04-15T14:41:23.620Z,7.07
2018-04-15T14:43:51.401Z,9.23
2018-04-15T14:46:20.288Z,7.27
2018-04-15T14:48:47.912Z,6.60
2018-04-15T14:51:15.528Z,8.20
2018-04-15T14:53:43.120Z,8.53
2018-04-15T14:56:10.765Z,7.97
2018-04-15T14:58:38.498Z,9.00
2018-04-15T15:01:06.189Z,9.40
2018-04-15T15:03:33.852Z,8.47
2018-04-15T15:06:01.444Z,8.43
2018-04-15T15:08:29.045Z,7.77
2018-04-15T15:10:56.696Z,11.80
2018-04-15T15:13:24.330Z,9.83
2018-04-15T15:15:52.865Z,10.40
2018-04-15T15:18:20.491Z,8.77
2018-04-15T15:20:48.105Z,9.60
2018-04-15T15:23:15.730Z,8.90
2018-04-15T15:25:43.359Z,7.90
2018-04-15T15:28:11.013Z,9.90
2018-04-15T15:30:38.556Z,8.83
2018-04-15T15:33:06.233Z,8.47
2018-04-15T15:35:33.820Z,9.13
2018-04-15T15:38:01.419Z,10.07
2018-04-15T15:40:29.063Z,10.03
2018-04-15T15:42:56.663Z,8.40
2018-04-15T15:45:24.275Z,8.77
2018-04-15T15:47:51.904Z,10.07
2018-04-15T15:50:19.483Z,8.93
2018-04-15T15:52:47.100Z,9.47
2018-04-15T15:55:14.724Z,11.40
2018-04-15T15:57:42.329Z,8.50
2018-04-15T16:00:09.953Z,9.40
2018-04-15T16:02:37.602Z,9.33
2018-04-15T16:05:05.181Z,8.70
2018-04-15T16:07:32.768Z,9.70
2018-04-15T16:10:00.400Z,10.43
2018-04-15T16:12:28.021Z,12.03
2018-04-15T16:14:55.637Z,10.53
2018-04-15T16:17:23.369Z,12.63
2018-04-15T16:19:50.985Z,10.73
2018-04-15T16:22:20.307Z,12.00
2018-04-15T16:24:48.150Z,10.70
2018-04-15T16:27:16.104Z,10.20
2018-04-15T16:29:43.900Z,9.33
2018-04-15T16:32:11.524Z,11.13
2018-04-15T16:34:39.280Z,11.60
2018-04-15T16:37:06.970Z,10.63
2018-04-15T16:39:35.116Z,10.80
2018-04-15T16:42:02.792Z,11.67
2018-04-15T16:44:31.520Z,12.20
2018-04-15T16:46:59.203Z,10.67
2018-04-15T16:49:26.887Z,11.60
2018-04-15T16:51:54.562Z,9.87
2018-04-15T16:54:22.615Z,10.70
2018-04-15T16:56:50.274Z,12.03
2018-04-15T16:59:18.131Z,12.10
2018-04-15T17:01:45.815Z,11.63
2018-04-15T17:04:13.419Z,10.87
2018-04-15T17:06:48.388Z,12.37
2018-04-15T17:09:16.133Z,10.53
2018-04-15T17:11:43.734Z,11.10
2018-04-15T17:14:11.353Z,12.10
2018-04-15T17:16:38.931Z,13.17
2018-04-15T17:19:06.533Z,12.30
2018-04-15T17:21:34.149Z,11.93
2018-04-15T17:24:01.748Z,12.57
2018-04-15T17:26:29.396Z,13.67
2018-04-15T17:28:57.042Z,13.77
2018-04-15T17:31:25.170Z,12.53
2018-04-15T17:33:52.787Z,11.80
2018-04-15T17:36:20.420Z,13.20
2018-04-15T17:38:47.997Z,12.27
2018-04-15T17:41:15.572Z,13.20
2018-04-15T17:43:43.198Z,11.97
2018-04-15T17:46:10.858Z,12.97
2018-04-15T17:48:38.457Z,13.30
2018-04-15T17:51:06.097Z,13.53
2018-04-15T17:53:33.689Z,13.47
2018-04-15T17:56:01.296Z,13.80
2018-04-15T17:58:29.160Z,12.83
2018-04-15T18:00:56.813Z,12.37
2018-04-15T18:03:24.670Z,13.07
2018-04-15T18:05:52.535Z,12.23
2018-04-15T18:08:20.427Z,12.83
2018-04-15T18:10:48.061Z,11.90
2018-04-15T18:13:15.678Z,12.77
2018-04-15T18:15:43.282Z,11.77
2018-04-15T18:18:10.917Z,14.30
2018-04-15T18:20:38.558Z,11.67
2018-04-15T18:23:06.196Z,11.23
2018-04-15T18:25:34.046Z,12.00
2018-04-15T18:28:01.715Z,12.73
2018-04-15T18:30:29.590Z,10.97
2018-04-15T18:32:57.250Z,12.97
2018-04-15T18:35:25.117Z,12.17
2018-04-15T18:37:52.716Z,12.07
2018-04-15T18:40:20.319Z,13.30
2018-04-15T18:42:48.003Z,12.83
2018-04-15T18:45:15.683Z,13.37
2018-04-15T18:47:44.536Z,13.80
2018-04-15T18:50:12.312Z,14.23
2018-04-15T18:52:40.291Z,12.43
2018-04-15T18:55:07.950Z,12.40
2018-04-15T18:57:35.936Z,14.80
2018-04-15T19:00:03.534Z,13.40
2018-04-15T19:02:31.349Z,10.90
2018-04-15T19:04:58.976Z,13.70
2018-04-15T19:07:26.595Z,12.40
2018-04-15T19:09:54.233Z,14.07
2018-04-15T19:12:21.928Z,11.93
2018-04-15T19:14:49.518Z,14.17
2018-04-15T19:17:17.119Z,14.50
2018-04-15T19:19:44.984Z,13.60
2018-04-15T19:22:12.638Z,14.03
2018-04-15T19:24:40.297Z,13.27
2018-04-15T19:27:08.184Z,13.30
2018-04-15T19:29:35.840Z,12.70
2018-04-15T19:32:03.636Z,12.60
2018-04-15T19:34:31.368Z,14.87
2018-04-15T19:36:58.957Z,13.70
2018-04-15T19:39:26.548Z,13.80
2018-04-15T19:41:54.226Z,14.57
2018-04-15T19:44:21.920Z,13.90
2018-04-15T19:46:49.511Z,13.30
2018-04-15T19:49:17.274Z,11.87
2018-04-15T19:51:45.008Z,15.17
2018-04-15T19:54:12.648Z,15.10
2018-04-15T19:56:40.345Z,12.00
2018-04-15T19:59:07.931Z,10.60
2018-04-15T20:01:35.531Z,14.40
2018-04-15T20:04:03.217Z,15.50
2018-04-15T20:06:34.313Z,12.13
2018-04-15T20:09:01.954Z,13.70
2018-04-15T20:11:29.677Z,14.50
2018-04-15T20:13:57.297Z,14.23
2018-04-15T20:16:24.925Z,15.20
2018-04-15T20:18:52.581Z,13.37
2018-04-15T20:21:20.210Z,14.30
2018-04-15T20:23:47.838Z,14.87
2018-04-15T20:26:16.995Z,14.57
2018-04-15T20:28:44.760Z,13.40
2018-04-15T20:31:12.364Z,14.90
2018-04-15T20:33:40.014Z,14.37
2018-04-15T20:36:07.615Z,14.03
2018-04-15T20:38:35.190Z,11.80
2018-04-15T20:41:02.839Z,14.43
2018-04-15T20:43:30.486Z,14.07
2018-04-15T20:45:58.120Z,11.37
2018-04-15T20:48:25.742Z,13.20
2018-04-15T20:50:53.354Z,14.07
2018-04-15T20:53:21.002Z,12.90
2018-04-15T20:55:48.688Z,12.53
2018-04-15T20:58:16.365Z,13.50
2018-04-15T21:00:43.965Z,14.33
2018-04-15T21:03:11.626Z,13.23
2018-04-15T21:05:39.209Z,13.63
2018-04-15T21:08:06.811Z,14.57
2018-04-15T21:10:34.487Z,11.07
2018-04-15T21:13:02.091Z,15.20
2018-04-15T21:15:29.700Z,12.63
2018-04-15T21:17:57.321Z,13.50
2018-04-15T21:20:24.928Z,13.73
2018-04-15T21:22:52.520Z,13.83
2018-04-15T21:25:20.163Z,12.20
2018-04-15T21:27:47.768Z,13.23
2018-04-15T21:30:15.364Z,11.10
2018-04-15T21:32:43.013Z,11.43
2018-04-15T21:35:10.645Z,12.80
2018-04-15T21:37:38.258Z,14.37
2018-04-15T21:40:05.887Z,12.93
2018-04-15T21:42:33.488Z,9.50
2018-04-15T21:45:01.090Z,13.40
2018-04-15T21:47:28.885Z,13.83
2018-04-15T21:49:56.495Z,15.20
2018-04-15T21:52:24.124Z,14.70
2018-04-15T21:54:51.800Z,10.90
2018-04-15T21:57:19.439Z,11.60
2018-04-15T21:59:47.069Z,14.03
2018-04-15T22:02:14.693Z,12.27
2018-04-15T22:04:42.354Z,12.87
2018-04-15T22:07:09.981Z,12.87
2018-04-15T22:09:37.611Z,11.50
2018-04-15T22:12:15.210Z,12.30
2018-04-15T22:14:42.911Z,11.90
2018-04-15T22:17:10.502Z,10.80
2018-04-15T22:19:38.119Z,13.13
2018-04-15T22:22:05.776Z,12.23
2018-04-15T22:24:33.404Z,11.17
2018-04-15T22:27:01.042Z,11.37
2018-04-15T22:29:28.750Z,11.27
2018-04-15T22:31:56.357Z,10.70
2018-04-15T22:34:23.977Z,10.23
2018-04-15T22:36:51.645Z,10.33
2018-04-15T22:39:19.245Z,10.33
2018-04-15T22:41:46.897Z,9.20
2018-04-15T22:44:14.524Z,11.17
2018-04-15T22:46:42.131Z,10.70
2018-04-15T22:49:15.271Z,11.43
2018-04-15T22:51:42.913Z,9.97
2018-04-15T22:54:10.544Z,10.67
2018-04-15T22:56:44.025Z,8.53
2018-04-15T22:59:11.692Z,8.60
2018-04-15T23:01:39.297Z,10.70
2018-04-15T23:04:06.934Z,10.10
2018-04-15T23:06:34.533Z,10.67
2018-04-15T23:09:02.138Z,9.70
2018-04-15T23:11:29.789Z,9.23
2018-04-15T23:13:57.384Z,8.40
2018-04-15T23:16:25.000Z,9.23
2018-04-15T23:18:52.631Z,8.90
2018-04-15T23:21:20.236Z,8.60
2018-04-15T23:23:47.831Z,9.93
2018-04-15T23:26:15.476Z,9.30
2018-04-15T23:28:43.055Z,9.87
2018-04-15T23:31:10.641Z,9.17
2018-04-15T23:33:38.276Z,9.43
2018-04-15T23:36:05.888Z,9.70
2018-04-15T23:38:33.480Z,9.20
2018-04-15T23:41:01.130Z,11.33
2018-04-15T23:43:28.729Z,8.53
2018-04-15T23:45:56.338Z,8.70
2018-04-15T23:48:24.020Z,8.50
2018-04-15T23:50:51.612Z,9.50
2018-04-15T23:53:19.208Z,8.43
2018-04-15T23:55:46.845Z,10.00
2018-04-15T23:58:14.440Z,9.53
